Home   Weather   Azerbaijan   Baku   Past weeks
Flag for Azerbaijan

Past Weather in Baku, Azerbaijan — Yesterday and Last 2 Weeks

Currently: 57 °F. Clear. (Weather station: Baku / Bine Airport, Azerbaijan). See more current weather

Past Weather in Baku — Graph

°F

Baku Temperature Yesterday

Maximum temperature yesterday: 72 °F (at 1:30 pm)
Minimum temperature yesterday: 48 °F (at 5:00 am)
Average temperature yesterday: 59 °F

High & Low Weather Summary for the Past Weeks

 TemperatureHumidityPressure
High73 °F (Apr 8, 3:00 pm)100% (Apr 5, 3:00 am)30.15 "Hg (Apr 5, 3:00 am)
Low39 °F (Apr 7, 4:30 am)34% (Apr 7, 10:30 am)29.65 "Hg (Apr 6, 3:00 am)
Average56 °F72%29.99 "Hg
* Reported Apr 4 12:00 am — Apr 19 12:30 am, Baku. Weather by CustomWeather, © 2021

Note: Actual official high and low records may vary slightly from our data, if they occured in-between our weather recording intervals... More about our weather records

Baku Weather History for the Previous 24 Hours

Scroll right to see more
 ConditionsComfort  
Time TempWeatherWind HumidityBarometerVisibility
12:30 am
Mon, Apr 19
57 °FClear.9 mph72%30.04 "Hg10 mi
12:00 am55 °FClear.9 mph82%30.04 "Hg10 mi
11:30 pm
Sun, Apr 18
55 °FClear.12 mph82%30.04 "Hg10 mi
11:00 pm54 °FClear.7 mph82%30.04 "Hg10 mi
10:30 pm55 °FClear.9 mph77%30.04 "Hg10 mi
10:00 pm55 °FClear.12 mph77%30.04 "Hg10 mi
9:30 pm55 °FClear.9 mph77%30.07 "Hg10 mi
9:00 pm55 °FClear.9 mph77%30.04 "Hg10 mi
8:30 pm55 °FClear.14 mph77%30.04 "Hg10 mi
8:00 pm55 °FClear.12 mph77%30.01 "Hg10 mi
7:30 pm55 °FClear.12 mph77%30.01 "Hg10 mi
7:00 pm55 °FSunny.12 mph82%29.98 "Hg10 mi
6:30 pm59 °FSunny.14 mph72%29.98 "Hg10 mi
6:00 pm66 °FSunny.12 mph56%29.95 "Hg10 mi
5:30 pm66 °FSunny.12 mph52%29.95 "Hg10 mi
5:00 pm66 °FSunny.14 mph52%29.92 "Hg10 mi
4:30 pm68 °FSunny.16 mph53%29.92 "Hg10 mi
4:00 pm68 °FSunny.16 mph49%29.95 "Hg10 mi
3:30 pm70 °FSunny.14 mph46%29.95 "Hg10 mi
3:00 pm72 °FSunny.14 mph44%29.95 "Hg10 mi
2:30 pm72 °FSunny.12 mph44%29.98 "Hg10 mi
2:00 pm72 °FSunny.9 mph44%29.98 "Hg10 mi
1:30 pm72 °FSunny.7 mph47%29.98 "Hg10 mi
1:00 pm70 °FSunny.7 mph43%30.01 "Hg10 mi
12:30 pm70 °FSunny.5 mph43%30.01 "Hg10 mi
12:00 pm68 °FSunny.5 mph46%30.04 "Hg10 mi
11:30 am68 °FSunny.7 mph49%30.04 "Hg10 mi
11:00 am64 °FSunny.7 mph56%30.07 "Hg10 mi
10:30 am64 °FSunny.9 mph56%30.07 "Hg10 mi
10:00 am63 °FSunny.9 mph64%30.07 "Hg10 mi
9:30 am63 °FSunny.7 mph64%30.07 "Hg10 mi
9:00 am61 °FSunny.9 mph68%30.07 "Hg10 mi
8:30 am61 °FSunny.12 mph68%30.09 "Hg10 mi
8:00 am59 °FSunny.12 mph72%30.09 "Hg10 mi
7:30 am57 °FSunny.7 mph77%30.09 "Hg10 mi
7:00 am57 °FSunny.9 mph77%30.09 "Hg10 mi
6:30 am52 °FSunny.7 mph82%30.09 "Hg10 mi
6:00 am50 °FSunny.5 mph88%30.09 "Hg10 mi
5:30 am50 °FClear.5 mph82%30.07 "Hg10 mi
5:00 am48 °FClear.2 mph87%30.07 "Hg10 mi
4:30 am50 °FClear.No wind82%30.07 "Hg10 mi
4:00 am50 °FClear.No wind82%30.07 "Hg10 mi
3:30 am52 °FClear.2 mph77%30.07 "Hg10 mi
3:00 am52 °FClear.2 mph77%30.07 "Hg10 mi
2:30 am52 °FClear.No wind82%30.07 "Hg10 mi
2:00 am52 °FClear.No wind82%30.07 "Hg10 mi
1:30 am52 °FClear.2 mph82%30.07 "Hg10 mi
1:00 am52 °FClear.No wind82%30.09 "Hg10 mi
Weather by CustomWeather, © 2021

See weather overview